sensor_id;sensor_type;location;lat;lon;timestamp;pressure;altitude;pressure_sealevel;temperature
19196;BMP280;9730;48.926;11.376;2023-06-22T00:01:48;97047.28;;;17.73
19196;BMP280;9730;48.926;11.376;2023-06-22T00:04:16;97031.25;;;17.82
19196;BMP280;9730;48.926;11.376;2023-06-22T00:06:43;97011.44;;;17.75
19196;BMP280;9730;48.926;11.376;2023-06-22T00:09:12;97003.66;;;17.97
19196;BMP280;9730;48.926;11.376;2023-06-22T00:11:40;97018.63;;;17.60
19196;BMP280;9730;48.926;11.376;2023-06-22T00:14:08;97021.59;;;17.45
19196;BMP280;9730;48.926;11.376;2023-06-22T00:16:36;97019.72;;;17.47
19196;BMP280;9730;48.926;11.376;2023-06-22T00:19:04;97021.81;;;17.42
19196;BMP280;9730;48.926;11.376;2023-06-22T00:21:32;97009.47;;;17.38
19196;BMP280;9730;48.926;11.376;2023-06-22T00:23:59;96998.78;;;17.44
19196;BMP280;9730;48.926;11.376;2023-06-22T00:26:29;96993.31;;;17.17
19196;BMP280;9730;48.926;11.376;2023-06-22T00:28:57;96990.78;;;17.06
19196;BMP280;9730;48.926;11.376;2023-06-22T00:31:24;96981.69;;;16.93
19196;BMP280;9730;48.926;11.376;2023-06-22T00:33:53;96975.72;;;17.14
19196;BMP280;9730;48.926;11.376;2023-06-22T00:36:21;96981.34;;;17.17
19196;BMP280;9730;48.926;11.376;2023-06-22T00:38:51;96985.19;;;17.23
19196;BMP280;9730;48.926;11.376;2023-06-22T00:41:18;96979.28;;;17.22
19196;BMP280;9730;48.926;11.376;2023-06-22T00:43:48;96980.53;;;17.28
19196;BMP280;9730;48.926;11.376;2023-06-22T00:46:15;97002.66;;;16.96
19196;BMP280;9730;48.926;11.376;2023-06-22T00:48:43;96986.44;;;16.97
19196;BMP280;9730;48.926;11.376;2023-06-22T00:51:11;96992.16;;;17.10
19196;BMP280;9730;48.926;11.376;2023-06-22T00:53:39;96986.69;;;17.14
19196;BMP280;9730;48.926;11.376;2023-06-22T00:56:07;96994.81;;;17.19
19196;BMP280;9730;48.926;11.376;2023-06-22T00:58:36;96995.53;;;17.10
19196;BMP280;9730;48.926;11.376;2023-06-22T01:01:05;96992.38;;;17.18
19196;BMP280;9730;48.926;11.376;2023-06-22T01:03:33;96998.41;;;17.17
19196;BMP280;9730;48.926;11.376;2023-06-22T01:06:08;96995.16;;;17.26
19196;BMP280;9730;48.926;11.376;2023-06-22T01:08:42;96991.66;;;17.27
19196;BMP280;9730;48.926;11.376;2023-06-22T01:11:16;96992.84;;;17.23
19196;BMP280;9730;48.926;11.376;2023-06-22T01:13:52;97005.91;;;17.18
19196;BMP280;9730;48.926;11.376;2023-06-22T01:16:26;97037.56;;;17.05
19196;BMP280;9730;48.926;11.376;2023-06-22T01:18:56;97052.53;;;16.99
19196;BMP280;9730;48.926;11.376;2023-06-22T01:21:28;97053.31;;;17.10
19196;BMP280;9730;48.926;11.376;2023-06-22T01:24:11;97060.25;;;17.19
19196;BMP280;9730;48.926;11.376;2023-06-22T01:26:54;97058.63;;;17.18
19196;BMP280;9730;48.926;11.376;2023-06-22T01:29:27;97064.91;;;17.25
19196;BMP280;9730;48.926;11.376;2023-06-22T01:31:56;97072.53;;;17.14
19196;BMP280;9730;48.926;11.376;2023-06-22T01:34:29;97062.38;;;17.03
19196;BMP280;9730;48.926;11.376;2023-06-22T01:36:58;97039.06;;;17.07
19196;BMP280;9730;48.926;11.376;2023-06-22T01:39:29;97009.75;;;16.82
19196;BMP280;9730;48.926;11.376;2023-06-22T01:41:58;97004.28;;;16.97
19196;BMP280;9730;48.926;11.376;2023-06-22T01:44:28;96997.09;;;16.91
19196;BMP280;9730;48.926;11.376;2023-06-22T01:46:56;96984.34;;;16.91
19196;BMP280;9730;48.926;11.376;2023-06-22T01:49:24;96969.66;;;16.95
19196;BMP280;9730;48.926;11.376;2023-06-22T01:51:52;96957.25;;;17.01
19196;BMP280;9730;48.926;11.376;2023-06-22T01:54:20;96954.88;;;17.09
19196;BMP280;9730;48.926;11.376;2023-06-22T01:56:48;96945.22;;;16.92
19196;BMP280;9730;48.926;11.376;2023-06-22T01:59:20;96935.03;;;16.92
19196;BMP280;9730;48.926;11.376;2023-06-22T02:01:57;96930.25;;;16.78
19196;BMP280;9730;48.926;11.376;2023-06-22T02:04:34;96925.09;;;16.89
19196;BMP280;9730;48.926;11.376;2023-06-22T02:07:05;96919.81;;;16.81
19196;BMP280;9730;48.926;11.376;2023-06-22T02:09:37;96899.00;;;16.97
19196;BMP280;9730;48.926;11.376;2023-06-22T02:12:07;96900.25;;;17.02
19196;BMP280;9730;48.926;11.376;2023-06-22T02:14:36;96887.16;;;17.06
19196;BMP280;9730;48.926;11.376;2023-06-22T02:17:09;96881.56;;;17.12
19196;BMP280;9730;48.926;11.376;2023-06-22T02:19:37;96876.16;;;17.06
19196;BMP280;9730;48.926;11.376;2023-06-22T02:22:05;96881.81;;;17.09
19196;BMP280;9730;48.926;11.376;2023-06-22T02:24:33;96889.94;;;17.03
19196;BMP280;9730;48.926;11.376;2023-06-22T02:27:02;96902.13;;;17.00
19196;BMP280;9730;48.926;11.376;2023-06-22T02:29:31;96898.69;;;17.10
19196;BMP280;9730;48.926;11.376;2023-06-22T02:31:59;96905.22;;;17.03
19196;BMP280;9730;48.926;11.376;2023-06-22T02:34:28;96916.50;;;17.01
19196;BMP280;9730;48.926;11.376;2023-06-22T02:36:56;96919.00;;;17.12
19196;BMP280;9730;48.926;11.376;2023-06-22T02:39:25;96923.63;;;17.07
19196;BMP280;9730;48.926;11.376;2023-06-22T02:41:54;96918.47;;;17.18
19196;BMP280;9730;48.926;11.376;2023-06-22T02:44:22;96931.72;;;17.12
19196;BMP280;9730;48.926;11.376;2023-06-22T02:46:50;96934.06;;;17.04
19196;BMP280;9730;48.926;11.376;2023-06-22T02:49:18;96938.13;;;17.06
19196;BMP280;9730;48.926;11.376;2023-06-22T02:51:48;96926.09;;;16.98
19196;BMP280;9730;48.926;11.376;2023-06-22T02:54:19;96921.13;;;16.96
19196;BMP280;9730;48.926;11.376;2023-06-22T02:56:49;96916.41;;;16.92
19196;BMP280;9730;48.926;11.376;2023-06-22T02:59:17;96906.09;;;16.93
19196;BMP280;9730;48.926;11.376;2023-06-22T03:01:52;96909.06;;;16.98
19196;BMP280;9730;48.926;11.376;2023-06-22T03:04:24;96910.78;;;17.08
19196;BMP280;9730;48.926;11.376;2023-06-22T03:06:53;96903.94;;;17.09
19196;BMP280;9730;48.926;11.376;2023-06-22T03:09:21;96903.00;;;17.10
19196;BMP280;9730;48.926;11.376;2023-06-22T03:11:49;96903.00;;;17.10
19196;BMP280;9730;48.926;11.376;2023-06-22T03:14:17;96905.34;;;17.02
19196;BMP280;9730;48.926;11.376;2023-06-22T03:16:45;96909.91;;;16.99
19196;BMP280;9730;48.926;11.376;2023-06-22T03:19:13;96911.13;;;16.84
19196;BMP280;9730;48.926;11.376;2023-06-22T03:21:41;96905.59;;;16.99
19196;BMP280;9730;48.926;11.376;2023-06-22T03:24:10;96905.47;;;16.80
19196;BMP280;9730;48.926;11.376;2023-06-22T03:26:38;96895.22;;;16.91
19196;BMP280;9730;48.926;11.376;2023-06-22T03:29:05;96897.03;;;17.00
19196;BMP280;9730;48.926;11.376;2023-06-22T03:31:34;96890.78;;;17.04
19196;BMP280;9730;48.926;11.376;2023-06-22T03:34:02;96887.53;;;17.02
19196;BMP280;9730;48.926;11.376;2023-06-22T03:36:29;96905.53;;;16.90
19196;BMP280;9730;48.926;11.376;2023-06-22T03:38:57;96904.72;;;16.89
19196;BMP280;9730;48.926;11.376;2023-06-22T03:41:26;96906.34;;;16.90
19196;BMP280;9730;48.926;11.376;2023-06-22T03:43:55;96902.38;;;16.97
19196;BMP280;9730;48.926;11.376;2023-06-22T03:46:23;96897.22;;;17.08
19196;BMP280;9730;48.926;11.376;2023-06-22T03:48:51;96903.75;;;17.01
19196;BMP280;9730;48.926;11.376;2023-06-22T03:51:19;96897.91;;;17.10
19196;BMP280;9730;48.926;11.376;2023-06-22T03:53:46;96910.81;;;17.29
19196;BMP280;9730;48.926;11.376;2023-06-22T03:56:14;96925.78;;;17.22
19196;BMP280;9730;48.926;11.376;2023-06-22T03:58:48;96938.53;;;17.22
19196;BMP280;9730;48.926;11.376;2023-06-22T04:01:15;96942.56;;;17.25
19196;BMP280;9730;48.926;11.376;2023-06-22T04:03:44;96957.34;;;17.31
19196;BMP280;9730;48.926;11.376;2023-06-22T04:06:14;96962.59;;;17.29
19196;BMP280;9730;48.926;11.376;2023-06-22T04:08:42;96962.97;;;17.25
19196;BMP280;9730;48.926;11.376;2023-06-22T04:11:10;96970.41;;;17.37
19196;BMP280;9730;48.926;11.376;2023-06-22T04:13:37;96975.06;;;17.32
19196;BMP280;9730;48.926;11.376;2023-06-22T04:16:06;96972.28;;;17.35
19196;BMP280;9730;48.926;11.376;2023-06-22T04:18:34;96957.63;;;17.48
19196;BMP280;9730;48.926;11.376;2023-06-22T04:21:03;96967.13;;;17.66
19196;BMP280;9730;48.926;11.376;2023-06-22T04:23:30;96983.72;;;17.41
19196;BMP280;9730;48.926;11.376;2023-06-22T04:25:58;96991.06;;;17.55
19196;BMP280;9730;48.926;11.376;2023-06-22T04:28:26;96993.38;;;17.58
19196;BMP280;9730;48.926;11.376;2023-06-22T04:30:54;96988.63;;;17.73
19196;BMP280;9730;48.926;11.376;2023-06-22T04:33:28;97002.00;;;17.46
19196;BMP280;9730;48.926;11.376;2023-06-22T04:35:57;96995.19;;;17.15
19196;BMP280;9730;48.926;11.376;2023-06-22T04:38:27;96964.69;;;17.24
19196;BMP280;9730;48.926;11.376;2023-06-22T04:40:55;96957.34;;;17.31
19196;BMP280;9730;48.926;11.376;2023-06-22T04:43:22;96951.34;;;17.52
19196;BMP280;9730;48.926;11.376;2023-06-22T04:45:50;96946.47;;;17.69
19196;BMP280;9730;48.926;11.376;2023-06-22T04:48:18;96954.88;;;17.90
19196;BMP280;9730;48.926;11.376;2023-06-22T04:50:48;96967.69;;;18.00
19196;BMP280;9730;48.926;11.376;2023-06-22T04:53:15;96981.63;;;18.16
19196;BMP280;9730;48.926;11.376;2023-06-22T04:55:43;96994.56;;;18.24
19196;BMP280;9730;48.926;11.376;2023-06-22T04:58:12;97009.22;;;18.31
19196;BMP280;9730;48.926;11.376;2023-06-22T05:00:39;97014.44;;;18.60
19196;BMP280;9730;48.926;11.376;2023-06-22T05:03:07;97037.00;;;18.64
19196;BMP280;9730;48.926;11.376;2023-06-22T05:05:43;97068.19;;;18.58
19196;BMP280;9730;48.926;11.376;2023-06-22T05:08:13;97062.22;;;18.48
19196;BMP280;9730;48.926;11.376;2023-06-22T05:10:41;97069.09;;;18.96
19196;BMP280;9730;48.926;11.376;2023-06-22T05:13:13;97089.34;;;19.18
19196;BMP280;9730;48.926;11.376;2023-06-22T05:15:41;97109.13;;;19.35
19196;BMP280;9730;48.926;11.376;2023-06-22T05:18:09;97138.38;;;19.61
19196;BMP280;9730;48.926;11.376;2023-06-22T05:20:38;97151.31;;;19.69
19196;BMP280;9730;48.926;11.376;2023-06-22T05:23:06;97166.53;;;19.70
19196;BMP280;9730;48.926;11.376;2023-06-22T05:25:35;97177.34;;;19.92
19196;BMP280;9730;48.926;11.376;2023-06-22T05:28:02;97188.66;;;19.99
19196;BMP280;9730;48.926;11.376;2023-06-22T05:30:37;97191.22;;;19.99
19196;BMP280;9730;48.926;11.376;2023-06-22T05:33:05;97197.13;;;20.09
19196;BMP280;9730;48.926;11.376;2023-06-22T05:35:33;97194.31;;;20.03
19196;BMP280;9730;48.926;11.376;2023-06-22T05:38:00;97206.31;;;20.12
19196;BMP280;9730;48.926;11.376;2023-06-22T05:40:28;97212.91;;;20.24
19196;BMP280;9730;48.926;11.376;2023-06-22T05:42:57;97210.59;;;20.30
19196;BMP280;9730;48.926;11.376;2023-06-22T05:45:27;97217.47;;;20.39
19196;BMP280;9730;48.926;11.376;2023-06-22T05:47:54;97211.94;;;20.15
19196;BMP280;9730;48.926;11.376;2023-06-22T05:50:22;97205.47;;;20.49
19196;BMP280;9730;48.926;11.376;2023-06-22T05:52:50;97203.84;;;21.30
19196;BMP280;9730;48.926;11.376;2023-06-22T05:55:17;97221.59;;;22.71
19196;BMP280;9730;48.926;11.376;2023-06-22T05:57:46;97244.88;;;23.95
19196;BMP280;9730;48.926;11.376;2023-06-22T06:00:16;97247.22;;;24.69
19196;BMP280;9730;48.926;11.376;2023-06-22T06:02:44;97228.78;;;25.50
19196;BMP280;9730;48.926;11.376;2023-06-22T06:05:12;97217.94;;;25.92
19196;BMP280;9730;48.926;11.376;2023-06-22T06:07:40;97209.25;;;26.08
19196;BMP280;9730;48.926;11.376;2023-06-22T06:10:09;97199.25;;;26.27
19196;BMP280;9730;48.926;11.376;2023-06-22T06:12:36;97211.94;;;26.00
19196;BMP280;9730;48.926;11.376;2023-06-22T06:15:05;97206.59;;;26.97
19196;BMP280;9730;48.926;11.376;2023-06-22T06:17:35;97195.19;;;27.20
19196;BMP280;9730;48.926;11.376;2023-06-22T06:20:04;97191.53;;;27.50
19196;BMP280;9730;48.926;11.376;2023-06-22T06:22:33;97186.78;;;27.33
19196;BMP280;9730;48.926;11.376;2023-06-22T06:25:01;97205.94;;;27.52
19196;BMP280;9730;48.926;11.376;2023-06-22T06:27:28;97208.25;;;26.90
19196;BMP280;9730;48.926;11.376;2023-06-22T06:29:56;97206.41;;;27.56
19196;BMP280;9730;48.926;11.376;2023-06-22T06:32:24;97177.00;;;28.46
19196;BMP280;9730;48.926;11.376;2023-06-22T06:34:53;97180.00;;;28.02
19196;BMP280;9730;48.926;11.376;2023-06-22T06:37:21;97164.53;;;28.56
19196;BMP280;9730;48.926;11.376;2023-06-22T06:39:49;97165.97;;;28.38
19196;BMP280;9730;48.926;11.376;2023-06-22T06:42:16;97181.50;;;28.59
19196;BMP280;9730;48.926;11.376;2023-06-22T06:44:45;97163.91;;;29.09
19196;BMP280;9730;48.926;11.376;2023-06-22T06:47:13;97216.16;;;28.10
19196;BMP280;9730;48.926;11.376;2023-06-22T06:49:41;97182.13;;;29.22
19196;BMP280;9730;48.926;11.376;2023-06-22T06:52:10;97138.75;;;29.62
19196;BMP280;9730;48.926;11.376;2023-06-22T06:54:38;97192.38;;;27.50
19196;BMP280;9730;48.926;11.376;2023-06-22T06:57:06;97168.91;;;29.63
19196;BMP280;9730;48.926;11.376;2023-06-22T06:59:33;97165.56;;;29.69
19196;BMP280;9730;48.926;11.376;2023-06-22T07:02:01;97148.69;;;30.38
19196;BMP280;9730;48.926;11.376;2023-06-22T07:04:29;97110.25;;;30.46
19196;BMP280;9730;48.926;11.376;2023-06-22T07:06:58;97100.06;;;30.58
19196;BMP280;9730;48.926;11.376;2023-06-22T07:09:27;97079.47;;;31.56
19196;BMP280;9730;48.926;11.376;2023-06-22T07:11:55;97035.06;;;29.93
19196;BMP280;9730;48.926;11.376;2023-06-22T07:14:23;97110.81;;;28.78
19196;BMP280;9730;48.926;11.376;2023-06-22T07:16:50;97114.78;;;28.74
19196;BMP280;9730;48.926;11.376;2023-06-22T07:19:24;97096.25;;;30.15
19196;BMP280;9730;48.926;11.376;2023-06-22T07:21:52;97078.16;;;31.34
19196;BMP280;9730;48.926;11.376;2023-06-22T07:24:20;97084.94;;;29.31
19196;BMP280;9730;48.926;11.376;2023-06-22T07:26:49;97069.31;;;31.05
19196;BMP280;9730;48.926;11.376;2023-06-22T07:29:17;97017.50;;;30.77
19196;BMP280;9730;48.926;11.376;2023-06-22T07:31:47;97018.41;;;31.70
19196;BMP280;9730;48.926;11.376;2023-06-22T07:34:16;96941.34;;;33.46
19196;BMP280;9730;48.926;11.376;2023-06-22T07:36:44;97017.41;;;31.95
19196;BMP280;9730;48.926;11.376;2023-06-22T07:39:12;96926.03;;;33.49
19196;BMP280;9730;48.926;11.376;2023-06-22T07:41:40;96924.91;;;33.68
19196;BMP280;9730;48.926;11.376;2023-06-22T07:44:09;96873.72;;;34.57
19196;BMP280;9730;48.926;11.376;2023-06-22T07:46:37;96898.88;;;34.07
19196;BMP280;9730;48.926;11.376;2023-06-22T07:49:05;97008.25;;;31.86
19196;BMP280;9730;48.926;11.376;2023-06-22T07:51:34;96995.41;;;31.67
19196;BMP280;9730;48.926;11.376;2023-06-22T07:54:02;96959.72;;;33.80
19196;BMP280;9730;48.926;11.376;2023-06-22T07:56:29;96893.94;;;34.73
19196;BMP280;9730;48.926;11.376;2023-06-22T07:58:57;96983.81;;;34.05
19196;BMP280;9730;48.926;11.376;2023-06-22T08:01:28;96898.41;;;34.61
19196;BMP280;9730;48.926;11.376;2023-06-22T08:03:56;96953.78;;;34.07
19196;BMP280;9730;48.926;11.376;2023-06-22T08:06:24;96955.16;;;35.11
19196;BMP280;9730;48.926;11.376;2023-06-22T08:08:51;96974.03;;;34.97
19196;BMP280;9730;48.926;11.376;2023-06-22T08:11:21;96942.03;;;35.71
19196;BMP280;9730;48.926;11.376;2023-06-22T08:13:51;96908.41;;;35.19
19196;BMP280;9730;48.926;11.376;2023-06-22T08:16:21;96856.38;;;36.83
19196;BMP280;9730;48.926;11.376;2023-06-22T08:18:50;96835.59;;;37.85
19196;BMP280;9730;48.926;11.376;2023-06-22T08:21:18;96869.25;;;35.62
19196;BMP280;9730;48.926;11.376;2023-06-22T08:23:45;96871.69;;;36.91
19196;BMP280;9730;48.926;11.376;2023-06-22T08:26:14;96858.19;;;36.78
19196;BMP280;9730;48.926;11.376;2023-06-22T08:28:41;96832.31;;;36.22
19196;BMP280;9730;48.926;11.376;2023-06-22T08:31:09;96991.09;;;32.03
19196;BMP280;9730;48.926;11.376;2023-06-22T08:33:38;97008.53;;;32.63
19196;BMP280;9730;48.926;11.376;2023-06-22T08:36:15;96932.75;;;35.48
19196;BMP280;9730;48.926;11.376;2023-06-22T08:38:42;96903.81;;;35.92
19196;BMP280;9730;48.926;11.376;2023-06-22T08:41:11;96873.72;;;36.84
19196;BMP280;9730;48.926;11.376;2023-06-22T08:43:38;96890.34;;;36.05
19196;BMP280;9730;48.926;11.376;2023-06-22T08:46:06;96977.31;;;33.33
19196;BMP280;9730;48.926;11.376;2023-06-22T08:48:33;96956.50;;;35.57
19196;BMP280;9730;48.926;11.376;2023-06-22T08:51:01;96926.50;;;36.19
19196;BMP280;9730;48.926;11.376;2023-06-22T08:53:31;96839.38;;;38.04
19196;BMP280;9730;48.926;11.376;2023-06-22T08:55:58;96920.47;;;33.69
19196;BMP280;9730;48.926;11.376;2023-06-22T08:58:26;96917.75;;;34.71
19196;BMP280;9730;48.926;11.376;2023-06-22T09:00:54;96943.66;;;34.22
19196;BMP280;9730;48.926;11.376;2023-06-22T09:03:21;96919.69;;;35.36
19196;BMP280;9730;48.926;11.376;2023-06-22T09:05:53;96952.66;;;33.29
19196;BMP280;9730;48.926;11.376;2023-06-22T09:08:21;96959.16;;;34.74
19196;BMP280;9730;48.926;11.376;2023-06-22T09:10:50;96913.38;;;36.83
19196;BMP280;9730;48.926;11.376;2023-06-22T09:13:17;96847.69;;;37.40
19196;BMP280;9730;48.926;11.376;2023-06-22T09:15:45;96861.44;;;37.52
19196;BMP280;9730;48.926;11.376;2023-06-22T09:18:13;96958.13;;;32.98
19196;BMP280;9730;48.926;11.376;2023-06-22T09:20:41;96957.53;;;33.89
19196;BMP280;9730;48.926;11.376;2023-06-22T09:23:08;96949.38;;;35.25
19196;BMP280;9730;48.926;11.376;2023-06-22T09:25:36;96886.06;;;35.82
19196;BMP280;9730;48.926;11.376;2023-06-22T09:28:05;96965.38;;;34.34
19196;BMP280;9730;48.926;11.376;2023-06-22T09:30:32;96964.06;;;34.71
19196;BMP280;9730;48.926;11.376;2023-06-22T09:33:00;96891.72;;;36.50
19196;BMP280;9730;48.926;11.376;2023-06-22T09:35:28;96850.25;;;37.30
19196;BMP280;9730;48.926;11.376;2023-06-22T09:37:56;96801.06;;;38.28
19196;BMP280;9730;48.926;11.376;2023-06-22T09:40:24;96768.78;;;39.27
19196;BMP280;9730;48.926;11.376;2023-06-22T09:42:51;96888.28;;;34.92
19196;BMP280;9730;48.926;11.376;2023-06-22T09:45:20;96905.50;;;35.65
19196;BMP280;9730;48.926;11.376;2023-06-22T09:47:48;96809.00;;;37.72
19196;BMP280;9730;48.926;11.376;2023-06-22T09:50:16;96842.94;;;36.32
19196;BMP280;9730;48.926;11.376;2023-06-22T09:52:43;96819.25;;;35.47
19196;BMP280;9730;48.926;11.376;2023-06-22T09:55:13;96891.38;;;33.77
19196;BMP280;9730;48.926;11.376;2023-06-22T09:57:42;96848.88;;;35.48
19196;BMP280;9730;48.926;11.376;2023-06-22T10:00:11;96843.44;;;36.08
19196;BMP280;9730;48.926;11.376;2023-06-22T10:02:41;96901.47;;;32.98
19196;BMP280;9730;48.926;11.376;2023-06-22T10:05:09;96877.94;;;34.07
19196;BMP280;9730;48.926;11.376;2023-06-22T10:07:37;96857.31;;;34.61
19196;BMP280;9730;48.926;11.376;2023-06-22T10:10:09;96840.03;;;35.54
19196;BMP280;9730;48.926;11.376;2023-06-22T10:12:41;96851.22;;;35.65
19196;BMP280;9730;48.926;11.376;2023-06-22T10:15:10;96775.69;;;37.46
19196;BMP280;9730;48.926;11.376;2023-06-22T10:17:38;96759.59;;;37.02
19196;BMP280;9730;48.926;11.376;2023-06-22T10:20:08;96836.25;;;35.45
19196;BMP280;9730;48.926;11.376;2023-06-22T10:22:39;96845.38;;;35.80
19196;BMP280;9730;48.926;11.376;2023-06-22T10:25:07;96783.44;;;38.29
19196;BMP280;9730;48.926;11.376;2023-06-22T10:27:35;96715.88;;;39.86
19196;BMP280;9730;48.926;11.376;2023-06-22T10:30:07;96709.69;;;39.42
19196;BMP280;9730;48.926;11.376;2023-06-22T10:32:35;96744.31;;;38.96
19196;BMP280;9730;48.926;11.376;2023-06-22T10:35:04;96758.97;;;38.43
19196;BMP280;9730;48.926;11.376;2023-06-22T10:37:33;96711.28;;;40.06
19196;BMP280;9730;48.926;11.376;2023-06-22T10:40:01;96730.25;;;38.12
19196;BMP280;9730;48.926;11.376;2023-06-22T10:42:30;96698.88;;;40.07
19196;BMP280;9730;48.926;11.376;2023-06-22T10:44:57;96676.56;;;39.85
19196;BMP280;9730;48.926;11.376;2023-06-22T10:47:25;96699.13;;;40.05
19196;BMP280;9730;48.926;11.376;2023-06-22T10:49:53;96770.69;;;38.06
19196;BMP280;9730;48.926;11.376;2023-06-22T10:52:20;96786.19;;;36.05
19196;BMP280;9730;48.926;11.376;2023-06-22T10:54:49;96787.13;;;36.94
19196;BMP280;9730;48.926;11.376;2023-06-22T10:57:17;96842.69;;;35.21
19196;BMP280;9730;48.926;11.376;2023-06-22T10:59:44;96819.81;;;36.56
19196;BMP280;9730;48.926;11.376;2023-06-22T11:02:12;96786.03;;;37.63
19196;BMP280;9730;48.926;11.376;2023-06-22T11:04:40;96797.84;;;37.60
19196;BMP280;9730;48.926;11.376;2023-06-22T11:07:09;96896.03;;;34.09
19196;BMP280;9730;48.926;11.376;2023-06-22T11:09:36;96911.69;;;34.71
19196;BMP280;9730;48.926;11.376;2023-06-22T11:12:07;96864.56;;;35.15
19196;BMP280;9730;48.926;11.376;2023-06-22T11:14:35;96852.28;;;35.15
19196;BMP280;9730;48.926;11.376;2023-06-22T11:17:03;96862.09;;;34.92
19196;BMP280;9730;48.926;11.376;2023-06-22T11:19:31;96823.50;;;35.20
19196;BMP280;9730;48.926;11.376;2023-06-22T11:21:58;96834.78;;;35.37
19196;BMP280;9730;48.926;11.376;2023-06-22T11:24:26;96879.34;;;34.77
19196;BMP280;9730;48.926;11.376;2023-06-22T11:26:54;96849.72;;;35.37
19196;BMP280;9730;48.926;11.376;2023-06-22T11:29:24;96842.50;;;35.27
19196;BMP280;9730;48.926;11.376;2023-06-22T11:31:57;96849.84;;;35.42
19196;BMP280;9730;48.926;11.376;2023-06-22T11:34:25;96873.88;;;34.50
19196;BMP280;9730;48.926;11.376;2023-06-22T11:36:54;96817.63;;;35.84
19196;BMP280;9730;48.926;11.376;2023-06-22T11:39:22;96854.75;;;34.50
19196;BMP280;9730;48.926;11.376;2023-06-22T11:41:51;96844.72;;;34.75
19196;BMP280;9730;48.926;11.376;2023-06-22T11:44:19;96815.34;;;35.17
19196;BMP280;9730;48.926;11.376;2023-06-22T11:46:48;96821.94;;;36.11
19196;BMP280;9730;48.926;11.376;2023-06-22T11:49:16;96859.31;;;33.70
19196;BMP280;9730;48.926;11.376;2023-06-22T11:51:43;96875.16;;;34.25
19196;BMP280;9730;48.926;11.376;2023-06-22T11:54:11;96851.44;;;34.82
19196;BMP280;9730;48.926;11.376;2023-06-22T11:56:39;96857.38;;;34.50
19196;BMP280;9730;48.926;11.376;2023-06-22T11:59:06;96854.03;;;34.82
19196;BMP280;9730;48.926;11.376;2023-06-22T12:01:34;96823.03;;;35.23
19196;BMP280;9730;48.926;11.376;2023-06-22T12:04:03;96816.00;;;35.78
19196;BMP280;9730;48.926;11.376;2023-06-22T12:06:32;96816.53;;;36.17
19196;BMP280;9730;48.926;11.376;2023-06-22T12:09:01;96812.00;;;35.38
19196;BMP280;9730;48.926;11.376;2023-06-22T12:11:30;96796.38;;;34.94
19196;BMP280;9730;48.926;11.376;2023-06-22T12:13:58;96855.88;;;33.92
19196;BMP280;9730;48.926;11.376;2023-06-22T12:16:28;96821.28;;;35.12
19196;BMP280;9730;48.926;11.376;2023-06-22T12:18:56;96826.00;;;35.10
19196;BMP280;9730;48.926;11.376;2023-06-22T12:21:25;96777.59;;;35.51
19196;BMP280;9730;48.926;11.376;2023-06-22T12:23:52;96752.72;;;35.15
19196;BMP280;9730;48.926;11.376;2023-06-22T12:26:21;96765.19;;;34.92
19196;BMP280;9730;48.926;11.376;2023-06-22T12:28:48;96751.75;;;35.21
19196;BMP280;9730;48.926;11.376;2023-06-22T12:31:17;96766.88;;;35.36
19196;BMP280;9730;48.926;11.376;2023-06-22T12:33:44;96819.25;;;34.43
19196;BMP280;9730;48.926;11.376;2023-06-22T12:36:12;96819.19;;;33.98
19196;BMP280;9730;48.926;11.376;2023-06-22T12:38:41;96827.25;;;34.64
19196;BMP280;9730;48.926;11.376;2023-06-22T12:41:09;96803.38;;;35.21
19196;BMP280;9730;48.926;11.376;2023-06-22T12:43:36;96794.78;;;35.09
19196;BMP280;9730;48.926;11.376;2023-06-22T12:46:04;96786.81;;;35.53
19196;BMP280;9730;48.926;11.376;2023-06-22T12:48:32;96778.25;;;34.76
19196;BMP280;9730;48.926;11.376;2023-06-22T12:51:00;96776.94;;;35.60
19196;BMP280;9730;48.926;11.376;2023-06-22T12:53:28;96753.69;;;35.85
19196;BMP280;9730;48.926;11.376;2023-06-22T12:55:57;96749.25;;;35.69
19196;BMP280;9730;48.926;11.376;2023-06-22T12:58:25;96744.09;;;35.53
19196;BMP280;9730;48.926;11.376;2023-06-22T13:00:52;96721.41;;;35.42
19196;BMP280;9730;48.926;11.376;2023-06-22T13:03:20;96727.91;;;35.23
19196;BMP280;9730;48.926;11.376;2023-06-22T13:05:48;96718.91;;;35.35
19196;BMP280;9730;48.926;11.376;2023-06-22T13:08:15;96735.00;;;35.22
19196;BMP280;9730;48.926;11.376;2023-06-22T13:10:43;96733.13;;;35.56
19196;BMP280;9730;48.926;11.376;2023-06-22T13:13:12;96713.25;;;36.02
19196;BMP280;9730;48.926;11.376;2023-06-22T13:15:40;96702.75;;;36.55
19196;BMP280;9730;48.926;11.376;2023-06-22T13:18:07;96716.59;;;35.98
19196;BMP280;9730;48.926;11.376;2023-06-22T13:20:35;96728.91;;;35.01
19196;BMP280;9730;48.926;11.376;2023-06-22T13:23:03;96769.56;;;33.53
19196;BMP280;9730;48.926;11.376;2023-06-22T13:25:30;96767.22;;;34.57
19196;BMP280;9730;48.926;11.376;2023-06-22T13:27:58;96746.41;;;35.16
19196;BMP280;9730;48.926;11.376;2023-06-22T13:30:27;96718.41;;;35.17
19196;BMP280;9730;48.926;11.376;2023-06-22T13:32:56;96698.97;;;35.72
19196;BMP280;9730;48.926;11.376;2023-06-22T13:35:24;96734.75;;;35.40
19196;BMP280;9730;48.926;11.376;2023-06-22T13:37:51;96735.13;;;34.95
19196;BMP280;9730;48.926;11.376;2023-06-22T13:40:19;96738.69;;;35.43
19196;BMP280;9730;48.926;11.376;2023-06-22T13:42:46;96745.00;;;35.63
19196;BMP280;9730;48.926;11.376;2023-06-22T13:45:14;96722.59;;;36.19
19196;BMP280;9730;48.926;11.376;2023-06-22T13:47:45;96713.41;;;35.53
19196;BMP280;9730;48.926;11.376;2023-06-22T13:50:13;96744.78;;;35.10
19196;BMP280;9730;48.926;11.376;2023-06-22T13:52:41;96737.53;;;35.17
19196;BMP280;9730;48.926;11.376;2023-06-22T13:55:09;96744.31;;;34.09
19196;BMP280;9730;48.926;11.376;2023-06-22T13:57:37;96766.88;;;34.54
19196;BMP280;9730;48.926;11.376;2023-06-22T14:00:05;96752.84;;;34.76
19196;BMP280;9730;48.926;11.376;2023-06-22T14:02:37;96792.97;;;33.25
19196;BMP280;9730;48.926;11.376;2023-06-22T14:05:06;96818.72;;;33.10
19196;BMP280;9730;48.926;11.376;2023-06-22T14:07:34;96811.38;;;33.64
19196;BMP280;9730;48.926;11.376;2023-06-22T14:10:03;96789.53;;;34.21
19196;BMP280;9730;48.926;11.376;2023-06-22T14:12:30;96785.97;;;33.88
19196;BMP280;9730;48.926;11.376;2023-06-22T14:14:59;96761.91;;;34.69
19196;BMP280;9730;48.926;11.376;2023-06-22T14:17:27;96742.16;;;34.94